createdAt,value
2023-10-15T00:01:43.911Z,99312.34
2023-10-15T00:03:48.569Z,99270.94
2023-10-15T00:05:51.505Z,99333.19
2023-10-15T00:07:54.533Z,99328.81
2023-10-15T00:09:57.183Z,99274.63
2023-10-15T00:12:00.117Z,99270.16
2023-10-15T00:14:06.837Z,99361.09
2023-10-15T00:16:09.489Z,99329.38
2023-10-15T00:18:12.323Z,99283.22
2023-10-15T00:20:19.790Z,99314.28
2023-10-15T00:22:23.246Z,99328.56
2023-10-15T00:24:28.147Z,99387.84
2023-10-15T00:26:31.611Z,99342.75
2023-10-15T00:28:34.935Z,99291.94
2023-10-15T00:30:38.958Z,99298.47
2023-10-15T00:32:47.312Z,99342.59
2023-10-15T00:34:51.013Z,99288.69
2023-10-15T00:36:57.467Z,99332.56
2023-10-15T00:39:00.150Z,99286.94
2023-10-15T00:41:09.125Z,99380.75
2023-10-15T00:43:16.250Z,99329.53
2023-10-15T00:45:21.227Z,99330.38
2023-10-15T00:47:24.620Z,99294.25
2023-10-15T00:49:27.886Z,99318.66
2023-10-15T00:51:30.549Z,99284.59
2023-10-15T00:53:34.527Z,99279.69
2023-10-15T00:55:43.879Z,99304.91
2023-10-15T00:57:57.558Z,99279.13
2023-10-15T01:00:01.139Z,99276.84
2023-10-15T01:02:05.338Z,99277.22
2023-10-15T01:04:09.673Z,99284.31
2023-10-15T01:06:15.832Z,99319.59
2023-10-15T01:08:18.744Z,99293.97
2023-10-15T01:10:34.124Z,99308.81
2023-10-15T01:12:36.968Z,99269.31
2023-10-15T01:14:45.835Z,99307.84
2023-10-15T01:16:48.727Z,99278.00
2023-10-15T01:19:18.893Z,99330.00
2023-10-15T01:21:21.649Z,99296.47
2023-10-15T01:23:33.335Z,99331.59
2023-10-15T01:25:47.423Z,99345.09
2023-10-15T01:27:50.365Z,99301.53
2023-10-15T01:29:53.244Z,99302.63
2023-10-15T01:32:09.195Z,99311.16
2023-10-15T01:34:14.420Z,99352.72
2023-10-15T01:36:29.443Z,99305.28
2023-10-15T01:38:32.505Z,99307.31
2023-10-15T01:40:38.864Z,99326.50
2023-10-15T01:42:43.050Z,99289.16
2023-10-15T01:44:49.799Z,99270.91
2023-10-15T01:47:05.243Z,99281.91
2023-10-15T01:49:09.325Z,99301.59
2023-10-15T01:51:13.828Z,99307.72
2023-10-15T01:53:18.042Z,99311.41
2023-10-15T01:55:20.755Z,99293.66
2023-10-15T01:57:24.673Z,99330.19
2023-10-15T01:59:28.682Z,99349.31
2023-10-15T02:01:38.881Z,99292.56
2023-10-15T02:03:46.467Z,99277.59
2023-10-15T02:05:49.538Z,99272.78
2023-10-15T02:07:52.936Z,99281.59
2023-10-15T02:09:56.359Z,99257.56
2023-10-15T02:11:58.981Z,99287.03
2023-10-15T02:14:02.095Z,99301.16
2023-10-15T02:16:11.286Z,99317.41
2023-10-15T02:18:19.344Z,99350.50
2023-10-15T02:20:43.625Z,99315.59
2023-10-15T02:22:48.678Z,99352.66
2023-10-15T02:24:53.768Z,99279.84
2023-10-15T02:26:56.804Z,99313.19
2023-10-15T02:29:08.584Z,99308.97
2023-10-15T02:31:12.054Z,99278.25
2023-10-15T02:33:18.508Z,99366.19
2023-10-15T02:35:25.637Z,99387.75
2023-10-15T02:37:29.662Z,99303.56
2023-10-15T02:39:39.963Z,99351.66
2023-10-15T02:41:43.372Z,99337.28
2023-10-15T02:43:58.521Z,99345.03
2023-10-15T02:46:02.025Z,99338.47
2023-10-15T02:48:12.296Z,99384.44
2023-10-15T02:50:19.878Z,99333.47
2023-10-15T02:52:25.010Z,99346.44
2023-10-15T02:54:38.180Z,99327.97
2023-10-15T02:56:42.756Z,99333.25
2023-10-15T02:58:47.076Z,99400.75
2023-10-15T03:00:53.573Z,99306.97
2023-10-15T03:02:57.324Z,99413.78
2023-10-15T03:05:07.950Z,99374.81
2023-10-15T03:07:20.995Z,99347.09
2023-10-15T03:09:27.714Z,99337.38
2023-10-15T03:11:34.769Z,99386.03
2023-10-15T03:13:46.458Z,99369.91
2023-10-15T03:15:51.671Z,99380.22
2023-10-15T03:17:54.564Z,99336.38
2023-10-15T03:19:57.855Z,99337.41
2023-10-15T03:22:02.117Z,99337.78
2023-10-15T03:24:06.516Z,99416.31
2023-10-15T03:26:11.985Z,99318.03
2023-10-15T03:28:15.082Z,99319.09
2023-10-15T03:30:23.796Z,99394.34
2023-10-15T03:32:33.663Z,99348.25
2023-10-15T03:34:37.570Z,99419.75
2023-10-15T03:36:49.036Z,99447.16
2023-10-15T03:38:52.620Z,99408.84
2023-10-15T03:41:12.809Z,99353.28
2023-10-15T03:43:22.443Z,99361.94
2023-10-15T03:45:28.672Z,99350.97
2023-10-15T03:47:31.452Z,99333.00
2023-10-15T03:49:34.482Z,99380.09
2023-10-15T03:51:43.128Z,99368.53
2023-10-15T03:53:46.260Z,99387.84
2023-10-15T03:55:53.034Z,99357.72
2023-10-15T03:57:56.183Z,99404.69
2023-10-15T03:59:59.606Z,99338.75
2023-10-15T04:02:03.849Z,99356.06
2023-10-15T04:04:07.085Z,99374.59
2023-10-15T04:06:11.546Z,99305.84
2023-10-15T04:08:20.609Z,99319.53
2023-10-15T04:10:36.130Z,99313.13
2023-10-15T04:12:42.404Z,99378.69
2023-10-15T04:14:45.386Z,99401.88
2023-10-15T04:16:48.997Z,99315.47
2023-10-15T04:18:52.366Z,99338.88
2023-10-15T04:20:56.946Z,99375.41
2023-10-15T04:23:00.297Z,99367.44
2023-10-15T04:25:07.966Z,99341.09
2023-10-15T04:27:26.185Z,99344.72
2023-10-15T04:29:32.732Z,99363.69
2023-10-15T04:31:35.585Z,99367.91
2023-10-15T04:33:38.792Z,99332.41
2023-10-15T04:35:45.617Z,99346.59
2023-10-15T04:37:53.801Z,99375.16
2023-10-15T04:40:10.805Z,99358.63
2023-10-15T04:42:23.242Z,99420.03
2023-10-15T04:44:33.053Z,99360.97
2023-10-15T04:46:42.771Z,99375.97
2023-10-15T04:48:48.466Z,99387.13
2023-10-15T04:50:51.468Z,99352.78
2023-10-15T04:52:54.453Z,99397.91
2023-10-15T04:54:57.547Z,99370.81
2023-10-15T04:57:00.348Z,99359.00
2023-10-15T04:59:03.100Z,99382.06
2023-10-15T05:01:06.526Z,99369.78
2023-10-15T05:03:11.119Z,99355.50
2023-10-15T05:05:15.049Z,99416.38
2023-10-15T05:07:18.104Z,99423.19
2023-10-15T05:09:24.078Z,99418.03
2023-10-15T05:11:26.877Z,99367.66
2023-10-15T05:13:29.729Z,99480.13
2023-10-15T05:15:34.445Z,99415.44
2023-10-15T05:17:37.710Z,99390.00
2023-10-15T05:19:41.631Z,99468.19
2023-10-15T05:21:46.295Z,99438.28
2023-10-15T05:23:48.857Z,99396.91
2023-10-15T05:25:51.730Z,99417.03
2023-10-15T05:27:54.690Z,99381.91
2023-10-15T05:29:58.809Z,99425.34
2023-10-15T05:32:01.698Z,99468.28
2023-10-15T05:34:04.579Z,99422.69
2023-10-15T05:36:08.105Z,99438.47
2023-10-15T05:38:11.831Z,99396.66
2023-10-15T05:40:14.736Z,99464.88
2023-10-15T05:42:18.108Z,99502.00
2023-10-15T05:44:20.920Z,99388.94
2023-10-15T05:46:23.977Z,99511.06
2023-10-15T05:48:27.629Z,99530.88
2023-10-15T05:50:31.310Z,99459.84
2023-10-15T05:52:34.879Z,99401.38
2023-10-15T05:54:37.596Z,99416.50
2023-10-15T05:56:41.134Z,99477.66
2023-10-15T05:58:44.137Z,99486.69
2023-10-15T06:00:47.364Z,99427.16
2023-10-15T06:02:52.413Z,99456.34
2023-10-15T06:04:55.291Z,99428.69
2023-10-15T06:06:59.730Z,99468.59
2023-10-15T06:09:02.433Z,99450.34
2023-10-15T06:11:04.885Z,99465.09
2023-10-15T06:13:07.633Z,99530.44
2023-10-15T06:15:16.420Z,99427.03
2023-10-15T06:17:22.651Z,99446.91
2023-10-15T06:19:26.793Z,99450.72
2023-10-15T06:21:29.763Z,99419.13
2023-10-15T06:23:33.179Z,99441.06
2023-10-15T06:25:37.104Z,99518.19
2023-10-15T06:27:43.267Z,99430.03
2023-10-15T06:29:46.320Z,99492.59
2023-10-15T06:31:49.525Z,99497.59
2023-10-15T06:33:52.499Z,99438.31
2023-10-15T06:35:56.994Z,99465.50
2023-10-15T06:38:01.612Z,99474.78
2023-10-15T06:40:18.883Z,99492.72
2023-10-15T06:42:24.700Z,99451.59
2023-10-15T06:44:27.479Z,99471.59
2023-10-15T06:46:31.654Z,99541.47
2023-10-15T06:48:39.819Z,99461.28
2023-10-15T06:50:43.505Z,99487.22
2023-10-15T06:52:46.598Z,99508.41
2023-10-15T06:54:49.952Z,99448.75
2023-10-15T06:56:52.667Z,99438.09
2023-10-15T06:58:56.782Z,99469.91
2023-10-15T07:01:00.794Z,99440.81
2023-10-15T07:03:03.896Z,99464.16
2023-10-15T07:05:07.625Z,99439.00
2023-10-15T07:07:10.899Z,99458.56
2023-10-15T07:09:15.448Z,99466.00
2023-10-15T07:11:18.096Z,99450.09
2023-10-15T07:13:21.715Z,99453.72
2023-10-15T07:15:25.845Z,99468.72
2023-10-15T07:17:29.620Z,99492.19
2023-10-15T07:19:32.854Z,99449.09
2023-10-15T07:21:35.527Z,99434.84
2023-10-15T07:23:38.288Z,99454.34
2023-10-15T07:25:40.939Z,99471.78
2023-10-15T07:27:47.436Z,99466.09
2023-10-15T07:29:50.143Z,99506.44
2023-10-15T07:31:53.020Z,99456.94
2023-10-15T07:33:55.879Z,99449.44
2023-10-15T07:36:00.826Z,99519.34
2023-10-15T07:38:04.620Z,99454.31
2023-10-15T07:40:16.967Z,99479.47
2023-10-15T07:42:20.457Z,99433.84
2023-10-15T07:44:23.310Z,99463.09
2023-10-15T07:46:26.710Z,99458.03
2023-10-15T07:48:29.589Z,99444.75
2023-10-15T07:50:36.099Z,99458.50
2023-10-15T07:52:41.866Z,99495.28
2023-10-15T07:54:45.259Z,99467.47
2023-10-15T07:56:48.677Z,99468.31
2023-10-15T07:58:52.734Z,99470.59
2023-10-15T08:01:09.164Z,99471.47
2023-10-15T08:03:14.739Z,99478.81
2023-10-15T08:05:17.999Z,99502.47
2023-10-15T08:07:22.247Z,99456.00
2023-10-15T08:09:25.453Z,99475.44
2023-10-15T08:11:28.527Z,99504.31
2023-10-15T08:13:31.789Z,99454.34
2023-10-15T08:15:35.498Z,99487.13
2023-10-15T08:17:39.208Z,99464.59
2023-10-15T08:19:42.399Z,99485.13
2023-10-15T08:21:45.634Z,99454.09
2023-10-15T08:23:48.520Z,99519.47
2023-10-15T08:25:52.790Z,99459.22
2023-10-15T08:27:55.800Z,99467.56
2023-10-15T08:29:59.077Z,99433.94
2023-10-15T08:32:04.135Z,99492.56
2023-10-15T08:34:06.886Z,99528.66
2023-10-15T08:36:10.356Z,99509.25
2023-10-15T08:38:14.262Z,99491.38
2023-10-15T08:40:19.412Z,99463.00
2023-10-15T08:42:32.504Z,99484.31
2023-10-15T08:44:37.677Z,99470.34
2023-10-15T08:46:43.346Z,99461.56
2023-10-15T08:48:49.795Z,99503.16
2023-10-15T08:50:56.495Z,99484.66
2023-10-15T08:53:01.914Z,99462.06
2023-10-15T08:55:08.542Z,99471.88
2023-10-15T08:57:11.572Z,99484.59
2023-10-15T08:59:15.559Z,99469.69
2023-10-15T09:01:19.144Z,99501.81
2023-10-15T09:03:25.438Z,99444.56
2023-10-15T09:05:42.317Z,99443.69
2023-10-15T09:07:45.859Z,99454.22
2023-10-15T09:09:51.117Z,99476.34
2023-10-15T09:11:56.155Z,99491.19
2023-10-15T09:14:00.289Z,99481.69
2023-10-15T09:16:03.564Z,99449.03
2023-10-15T09:18:07.050Z,99471.59
2023-10-15T09:20:12.024Z,99491.03
2023-10-15T09:22:17.741Z,99450.97
2023-10-15T09:24:22.453Z,99431.28
2023-10-15T09:26:25.664Z,99443.06
2023-10-15T09:28:30.157Z,99491.00
2023-10-15T09:30:33.940Z,99463.28
2023-10-15T09:32:36.989Z,99439.66
2023-10-15T09:34:40.668Z,99462.09
2023-10-15T09:36:44.083Z,99469.00
2023-10-15T09:38:47.556Z,99436.81
2023-10-15T09:40:50.763Z,99435.38
2023-10-15T09:42:56.729Z,99467.19
2023-10-15T09:45:04.504Z,99455.13
2023-10-15T09:47:09.885Z,99447.81
2023-10-15T09:49:15.090Z,99518.47
2023-10-15T09:51:19.139Z,99502.19
2023-10-15T09:53:24.169Z,99455.69
2023-10-15T09:55:33.997Z,99466.28
2023-10-15T09:57:37.212Z,99444.28
2023-10-15T09:59:39.976Z,99459.09
2023-10-15T10:01:48.536Z,99527.25
2023-10-15T10:04:07.013Z,99446.13
2023-10-15T10:06:33.572Z,99486.16
2023-10-15T10:09:05.587Z,99542.72
2023-10-15T10:11:18.191Z,99529.50
2023-10-15T10:13:35.919Z,99445.50
2023-10-15T10:15:56.671Z,99465.88
2023-10-15T10:18:01.175Z,99453.72
2023-10-15T10:20:23.970Z,99456.81
2023-10-15T10:22:31.250Z,99464.69
2023-10-15T10:24:47.294Z,99449.59
2023-10-15T10:26:55.755Z,99463.13
2023-10-15T10:29:01.488Z,99447.97
2023-10-15T10:31:06.810Z,99450.13
2023-10-15T10:33:10.936Z,99433.84
2023-10-15T10:35:22.051Z,99396.69
2023-10-15T10:37:25.253Z,99469.06
2023-10-15T10:39:45.448Z,99439.25
2023-10-15T10:41:52.886Z,99455.06
2023-10-15T10:44:10.294Z,99431.59
2023-10-15T10:46:24.648Z,99439.75
2023-10-15T10:48:29.571Z,99439.06
2023-10-15T10:50:47.023Z,99431.56
2023-10-15T10:53:13.591Z,99490.88
2023-10-15T10:55:35.402Z,99422.44
2023-10-15T10:57:44.386Z,99415.25
2023-10-15T10:59:47.854Z,99402.59
2023-10-15T11:01:52.309Z,99447.22
2023-10-15T11:03:55.068Z,99473.28
2023-10-15T11:05:57.943Z,99424.09
2023-10-15T11:08:01.047Z,99492.19
2023-10-15T11:10:07.571Z,99480.72
2023-10-15T11:12:11.209Z,99388.69
2023-10-15T11:14:15.037Z,99425.44
2023-10-15T11:16:18.590Z,99401.47
2023-10-15T11:18:24.876Z,99487.94
2023-10-15T11:20:29.127Z,99459.47
2023-10-15T11:22:32.201Z,99412.22
2023-10-15T11:24:35.246Z,99407.00
2023-10-15T11:26:43.384Z,99457.31
2023-10-15T11:28:47.248Z,99394.75
2023-10-15T11:30:51.000Z,99439.88
2023-10-15T11:32:53.681Z,99411.41
2023-10-15T11:34:56.682Z,99408.97
2023-10-15T11:36:59.494Z,99374.16
2023-10-15T11:39:09.927Z,99382.44
2023-10-15T11:41:14.597Z,99404.09
2023-10-15T11:43:23.636Z,99393.63
2023-10-15T11:45:33.050Z,99385.63
2023-10-15T11:47:37.079Z,99419.94
2023-10-15T11:49:40.742Z,99359.97
2023-10-15T11:51:43.838Z,99397.59
2023-10-15T11:53:48.358Z,99426.75
2023-10-15T11:55:56.259Z,99338.38
2023-10-15T11:58:12.230Z,99398.25
2023-10-15T12:00:24.761Z,99400.66
2023-10-15T12:02:29.773Z,99394.03
2023-10-15T12:04:34.431Z,99371.41
2023-10-15T12:06:37.396Z,99420.09
2023-10-15T12:08:40.649Z,99366.34
2023-10-15T12:10:47.102Z,99353.00
2023-10-15T12:12:51.494Z,99399.22
2023-10-15T12:14:54.016Z,99399.53
2023-10-15T12:16:56.982Z,99352.78
2023-10-15T12:19:00.056Z,99391.69
2023-10-15T12:21:02.982Z,99389.56
2023-10-15T12:23:05.905Z,99391.72
2023-10-15T12:25:09.208Z,99407.09
2023-10-15T12:27:12.771Z,99397.31
2023-10-15T12:29:28.188Z,99456.13
2023-10-15T12:31:35.105Z,99400.63
2023-10-15T12:33:40.547Z,99371.13
2023-10-15T12:35:46.184Z,99351.25
2023-10-15T12:37:51.481Z,99363.16
2023-10-15T12:39:54.570Z,99337.09
2023-10-15T12:41:58.286Z,99391.63
2023-10-15T12:44:01.845Z,99404.03
2023-10-15T12:46:05.610Z,99382.19
2023-10-15T12:48:10.626Z,99333.84
2023-10-15T12:50:17.049Z,99369.03
2023-10-15T12:52:20.689Z,99389.19
2023-10-15T12:54:23.971Z,99376.84
2023-10-15T12:56:27.145Z,99379.75
2023-10-15T12:58:30.011Z,99410.34
2023-10-15T13:00:34.538Z,99342.63
2023-10-15T13:02:38.311Z,99376.16
2023-10-15T13:04:41.505Z,99364.41
2023-10-15T13:06:45.077Z,99340.13
2023-10-15T13:08:47.867Z,99357.50
2023-10-15T13:10:51.616Z,99343.34
2023-10-15T13:12:56.352Z,99345.44
2023-10-15T13:15:00.088Z,99420.66
2023-10-15T13:17:03.246Z,99349.38
2023-10-15T13:19:06.257Z,99357.06
2023-10-15T13:21:12.376Z,99441.22
2023-10-15T13:23:15.360Z,99366.78
2023-10-15T13:25:18.837Z,99377.09
2023-10-15T13:27:22.156Z,99324.53
2023-10-15T13:29:25.486Z,99389.81
2023-10-15T13:31:28.967Z,99364.75
2023-10-15T13:33:32.670Z,99365.13
2023-10-15T13:35:36.923Z,99352.94
2023-10-15T13:37:41.525Z,99346.41
2023-10-15T13:39:44.305Z,99349.66
2023-10-15T13:41:48.914Z,99348.69
2023-10-15T13:43:52.242Z,99357.63
2023-10-15T13:45:54.953Z,99335.97
2023-10-15T13:47:57.950Z,99312.38
2023-10-15T13:50:01.158Z,99371.78
2023-10-15T13:52:05.744Z,99333.38
2023-10-15T13:54:08.808Z,99316.91
2023-10-15T13:56:12.088Z,99365.44
2023-10-15T13:58:14.900Z,99359.94
2023-10-15T14:00:18.379Z,99305.81
2023-10-15T14:02:21.329Z,99333.16
2023-10-15T14:04:24.723Z,99353.34
2023-10-15T14:06:29.211Z,99355.28
2023-10-15T14:08:31.880Z,99354.91
2023-10-15T14:10:34.533Z,99393.69
2023-10-15T14:12:37.427Z,99394.97
2023-10-15T14:14:40.971Z,99329.72
2023-10-15T14:16:44.053Z,99391.47
2023-10-15T14:18:49.244Z,99365.41
2023-10-15T14:20:52.565Z,99383.44
2023-10-15T14:22:59.309Z,99431.38
2023-10-15T14:25:02.821Z,99323.06
2023-10-15T14:27:06.609Z,99334.78
2023-10-15T14:29:09.294Z,99373.88
2023-10-15T14:31:13.551Z,99370.44
2023-10-15T14:33:16.530Z,99384.50
2023-10-15T14:35:20.511Z,99371.72
2023-10-15T14:37:23.653Z,99371.22
2023-10-15T14:39:27.730Z,99318.59
2023-10-15T14:41:31.272Z,99362.44
2023-10-15T14:43:34.691Z,99348.72
2023-10-15T14:45:39.036Z,99349.66
2023-10-15T14:47:42.928Z,99384.88
2023-10-15T14:49:47.925Z,99367.41
2023-10-15T14:51:51.115Z,99407.03
2023-10-15T14:53:54.713Z,99375.00
2023-10-15T14:55:57.872Z,99417.38
2023-10-15T14:58:00.563Z,99352.09
2023-10-15T15:00:06.193Z,99351.88
2023-10-15T15:02:12.329Z,99381.00
2023-10-15T15:04:17.925Z,99304.00
2023-10-15T15:06:21.034Z,99390.09
2023-10-15T15:08:24.189Z,99406.00
2023-10-15T15:10:27.308Z,99372.91
2023-10-15T15:12:30.150Z,99390.03
2023-10-15T15:14:33.258Z,99469.44
2023-10-15T15:16:36.359Z,99375.09
2023-10-15T15:18:39.184Z,99369.81
2023-10-15T15:20:42.281Z,99370.69
2023-10-15T15:22:45.104Z,99402.59
2023-10-15T15:24:48.113Z,99351.72
2023-10-15T15:26:51.225Z,99423.88
2023-10-15T15:28:54.398Z,99472.28
2023-10-15T15:30:57.533Z,99365.69
2023-10-15T15:33:02.482Z,99381.09
2023-10-15T15:35:09.250Z,99452.88
2023-10-15T15:37:11.982Z,99474.16
2023-10-15T15:39:14.627Z,99447.91
2023-10-15T15:41:17.635Z,99367.06
2023-10-15T15:43:22.791Z,99387.78
2023-10-15T15:45:26.469Z,99405.84
2023-10-15T15:47:29.588Z,99438.81
2023-10-15T15:49:32.781Z,99405.69
2023-10-15T15:51:35.728Z,99392.34
2023-10-15T15:53:38.427Z,99391.53
2023-10-15T15:55:44.817Z,99389.19
2023-10-15T15:57:48.067Z,99433.88
2023-10-15T15:59:52.901Z,99407.31
2023-10-15T16:01:56.225Z,99392.84
2023-10-15T16:04:03.074Z,99424.44
2023-10-15T16:06:06.303Z,99515.41
2023-10-15T16:08:10.701Z,99444.72
2023-10-15T16:10:13.758Z,99402.72
2023-10-15T16:12:17.107Z,99497.22
2023-10-15T16:14:20.360Z,99408.16
2023-10-15T16:16:23.577Z,99484.75
2023-10-15T16:18:28.612Z,99451.16
2023-10-15T16:20:33.976Z,99435.56
2023-10-15T16:22:38.224Z,99455.22
2023-10-15T16:24:46.869Z,99477.00
2023-10-15T16:26:52.682Z,99468.66
2023-10-15T16:28:56.154Z,99444.88
2023-10-15T16:30:59.836Z,99455.56
2023-10-15T16:33:04.316Z,99486.94
2023-10-15T16:35:18.156Z,99453.28
2023-10-15T16:37:21.282Z,99485.09
2023-10-15T16:39:24.106Z,99550.75
2023-10-15T16:41:27.342Z,99489.84
2023-10-15T16:43:34.478Z,99542.66
2023-10-15T16:45:42.622Z,99492.84
2023-10-15T16:47:46.037Z,99543.88
2023-10-15T16:49:49.284Z,99493.06
2023-10-15T16:51:53.230Z,99508.06
2023-10-15T16:53:56.124Z,99524.97
2023-10-15T16:55:59.803Z,99510.09
2023-10-15T16:58:03.999Z,99534.53
2023-10-15T17:00:10.897Z,99508.84
2023-10-15T17:02:13.703Z,99567.59
2023-10-15T17:04:17.538Z,99511.84
2023-10-15T17:06:20.963Z,99578.16
2023-10-15T17:08:23.937Z,99493.75
2023-10-15T17:10:27.408Z,99618.84
2023-10-15T17:12:30.489Z,99557.63
2023-10-15T17:14:33.761Z,99529.16
2023-10-15T17:16:36.941Z,99566.56
2023-10-15T17:18:40.346Z,99532.09
2023-10-15T17:20:44.373Z,99510.81
2023-10-15T17:22:49.565Z,99559.44
2023-10-15T17:24:53.007Z,99574.91
2023-10-15T17:26:59.816Z,99555.13
2023-10-15T17:29:05.910Z,99523.84
2023-10-15T17:31:09.070Z,99603.63
2023-10-15T17:33:13.455Z,99529.72
2023-10-15T17:35:17.553Z,99528.34
2023-10-15T17:37:21.738Z,99550.03
2023-10-15T17:39:30.005Z,99538.22
2023-10-15T17:41:33.460Z,99530.41
2023-10-15T17:43:36.933Z,99567.91
2023-10-15T17:45:39.869Z,99551.97
2023-10-15T17:47:42.866Z,99530.44
2023-10-15T17:49:46.437Z,99533.84
2023-10-15T17:51:50.471Z,99534.22
2023-10-15T17:53:53.662Z,99520.66
2023-10-15T17:55:59.701Z,99573.13
2023-10-15T17:58:03.872Z,99582.63
2023-10-15T18:00:13.476Z,99605.50
2023-10-15T18:02:16.439Z,99537.06
2023-10-15T18:04:19.730Z,99644.06
2023-10-15T18:06:24.359Z,99594.28
2023-10-15T18:08:27.469Z,99560.16
2023-10-15T18:10:30.420Z,99612.53
2023-10-15T18:12:33.644Z,99561.09
2023-10-15T18:14:38.270Z,99557.69
2023-10-15T18:16:41.742Z,99549.50
2023-10-15T18:18:44.924Z,99594.72
2023-10-15T18:20:48.144Z,99576.44
2023-10-15T18:22:51.491Z,99553.22
2023-10-15T18:24:55.164Z,99601.88
2023-10-15T18:26:58.238Z,99588.50
2023-10-15T18:29:01.917Z,99579.50
2023-10-15T18:31:08.287Z,99569.97
2023-10-15T18:33:12.467Z,99566.81
2023-10-15T18:35:18.622Z,99671.75
2023-10-15T18:37:22.844Z,99594.78
2023-10-15T18:39:26.438Z,99675.19
2023-10-15T18:41:29.384Z,99585.31
2023-10-15T18:43:36.289Z,99679.72
2023-10-15T18:45:39.154Z,99634.31
2023-10-15T18:47:42.799Z,99555.78
2023-10-15T18:49:46.301Z,99589.22
2023-10-15T18:51:49.486Z,99574.59
2023-10-15T18:53:52.638Z,99638.00
2023-10-15T18:55:55.609Z,99573.75
2023-10-15T18:57:59.174Z,99586.00
2023-10-15T19:00:04.880Z,99593.63
2023-10-15T19:02:08.228Z,99655.06
2023-10-15T19:04:11.530Z,99731.50
2023-10-15T19:06:14.947Z,99609.72
2023-10-15T19:08:17.973Z,99613.56
2023-10-15T19:10:20.949Z,99607.09
2023-10-15T19:12:24.226Z,99594.19
2023-10-15T19:14:27.444Z,99634.81
2023-10-15T19:16:31.364Z,99649.78
2023-10-15T19:18:35.148Z,99647.56
2023-10-15T19:20:42.069Z,99677.16
2023-10-15T19:22:45.321Z,99731.84
2023-10-15T19:24:48.537Z,99694.94
2023-10-15T19:26:53.147Z,99601.53
2023-10-15T19:28:56.514Z,99683.25
2023-10-15T19:31:00.331Z,99671.97
2023-10-15T19:33:03.776Z,99630.84
2023-10-15T19:35:07.120Z,99657.16
2023-10-15T19:37:11.989Z,99641.03
2023-10-15T19:39:17.369Z,99718.22
2023-10-15T19:41:20.827Z,99694.06
2023-10-15T19:43:23.933Z,99653.44
2023-10-15T19:45:27.953Z,99736.84
2023-10-15T19:47:32.623Z,99657.44
2023-10-15T19:49:36.334Z,99620.66
2023-10-15T19:51:42.756Z,99674.31
2023-10-15T19:53:45.928Z,99666.09
2023-10-15T19:55:48.681Z,99665.28
2023-10-15T19:57:55.431Z,99670.53
2023-10-15T19:59:59.650Z,99666.41
2023-10-15T20:02:03.165Z,99626.53
2023-10-15T20:04:09.416Z,99630.66
2023-10-15T20:06:13.048Z,99745.41
2023-10-15T20:08:16.661Z,99672.81
2023-10-15T20:10:19.470Z,99678.38
2023-10-15T20:12:23.976Z,99703.28
2023-10-15T20:14:30.559Z,99739.66
2023-10-15T20:16:34.001Z,99690.31
2023-10-15T20:18:37.382Z,99733.28
2023-10-15T20:20:43.242Z,99728.38
2023-10-15T20:22:47.311Z,99760.56
2023-10-15T20:24:50.725Z,99752.25
2023-10-15T20:26:53.539Z,99718.00
2023-10-15T20:28:56.183Z,99774.16
2023-10-15T20:30:59.862Z,99739.59
2023-10-15T20:33:02.879Z,99733.72
2023-10-15T20:35:06.347Z,99744.03
2023-10-15T20:37:09.215Z,99721.28
2023-10-15T20:39:19.804Z,99709.84
2023-10-15T20:41:22.997Z,99726.84
2023-10-15T20:43:25.841Z,99726.66
2023-10-15T20:45:29.004Z,99798.47
2023-10-15T20:47:31.784Z,99683.44
2023-10-15T20:49:34.682Z,99701.34
2023-10-15T20:51:37.899Z,99744.75
2023-10-15T20:53:41.245Z,99756.59
2023-10-15T20:55:44.423Z,99744.13
2023-10-15T20:57:48.093Z,99732.72
2023-10-15T20:59:50.962Z,99731.56
2023-10-15T21:01:54.000Z,99700.31
2023-10-15T21:03:57.150Z,99724.47
2023-10-15T21:06:03.052Z,99725.50
2023-10-15T21:08:08.212Z,99711.09
2023-10-15T21:10:13.248Z,99783.03
2023-10-15T21:12:17.081Z,99715.63
2023-10-15T21:14:20.116Z,99682.81
2023-10-15T21:16:23.151Z,99736.13
2023-10-15T21:18:26.449Z,99712.34
2023-10-15T21:20:29.154Z,99720.78
2023-10-15T21:22:32.136Z,99732.50
2023-10-15T21:24:36.731Z,99739.09
2023-10-15T21:26:42.561Z,99843.75
2023-10-15T21:28:45.260Z,99689.25
2023-10-15T21:30:47.760Z,99733.09
2023-10-15T21:32:51.070Z,99739.25
2023-10-15T21:34:54.167Z,99858.88
2023-10-15T21:37:00.881Z,99744.72
2023-10-15T21:39:04.787Z,99834.78
2023-10-15T21:41:07.870Z,99751.31
2023-10-15T21:43:10.998Z,99777.34
2023-10-15T21:45:14.650Z,99806.25
2023-10-15T21:47:18.048Z,99777.91
2023-10-15T21:49:21.287Z,99820.97
2023-10-15T21:51:24.031Z,99747.94
2023-10-15T21:53:26.490Z,99800.16
2023-10-15T21:55:32.190Z,99746.91
2023-10-15T21:57:35.136Z,99735.44
2023-10-15T21:59:37.825Z,99749.84
2023-10-15T22:01:40.863Z,99760.31
2023-10-15T22:03:46.100Z,99718.69
2023-10-15T22:05:49.745Z,99766.75
2023-10-15T22:07:54.242Z,99759.22
2023-10-15T22:09:56.858Z,99828.75
2023-10-15T22:11:59.339Z,99795.16
2023-10-15T22:14:02.115Z,99718.53
2023-10-15T22:16:09.578Z,99763.03
2023-10-15T22:18:16.795Z,99768.44
2023-10-15T22:20:23.526Z,99815.81
2023-10-15T22:22:26.733Z,99735.88
2023-10-15T22:24:30.792Z,99819.09
2023-10-15T22:26:33.182Z,99822.69
2023-10-15T22:28:38.571Z,99734.78
2023-10-15T22:30:43.005Z,99843.06
2023-10-15T22:32:49.847Z,99781.31
2023-10-15T22:34:52.606Z,99766.56
2023-10-15T22:36:55.579Z,99747.53
2023-10-15T22:38:58.204Z,99750.53
2023-10-15T22:41:01.166Z,99743.22
2023-10-15T22:43:04.197Z,99792.03
2023-10-15T22:45:11.704Z,99756.41
2023-10-15T22:47:15.623Z,99782.97
2023-10-15T22:49:21.067Z,99757.59
2023-10-15T22:51:24.050Z,99774.66
2023-10-15T22:53:27.892Z,99795.16
2023-10-15T22:55:31.543Z,99778.84
2023-10-15T22:57:34.370Z,99778.78
2023-10-15T22:59:37.907Z,99853.97
2023-10-15T23:01:40.852Z,99778.41
2023-10-15T23:03:43.761Z,99785.75
2023-10-15T23:05:47.316Z,99821.66
2023-10-15T23:07:51.044Z,99840.06
2023-10-15T23:09:54.305Z,99851.34
2023-10-15T23:12:02.398Z,99835.97
2023-10-15T23:14:07.693Z,99841.28
2023-10-15T23:16:16.647Z,99834.94
2023-10-15T23:18:23.040Z,99822.91
2023-10-15T23:20:36.141Z,99813.38
2023-10-15T23:22:38.590Z,99901.16
2023-10-15T23:24:41.604Z,99791.19
2023-10-15T23:26:45.352Z,99861.16
2023-10-15T23:28:48.472Z,99817.41
2023-10-15T23:30:53.526Z,99773.25
2023-10-15T23:33:01.516Z,99815.16
2023-10-15T23:35:04.848Z,99807.38
2023-10-15T23:37:07.893Z,99788.44
2023-10-15T23:39:17.959Z,99792.47
2023-10-15T23:41:23.526Z,99877.47
2023-10-15T23:43:27.631Z,99783.50
2023-10-15T23:45:30.849Z,99802.56
2023-10-15T23:47:35.089Z,99817.44
2023-10-15T23:49:37.564Z,99819.22
2023-10-15T23:51:42.247Z,99826.72
2023-10-15T23:53:45.897Z,99863.13
2023-10-15T23:55:50.218Z,99816.34
2023-10-15T23:57:52.674Z,99793.31
2023-10-15T23:59:55.445Z,99869.97
